Time;durP1;ratioP1;P1;durP2;ratioP2;P2;SDS_P1;SDS_P2;PMS_P1;PMS_P2;Temp;Humidity;BMP_temperature;BMP_pressure;BME280_temperature;BME280_humidity;BME280_pressure;Samples;Min_cycle;Max_cycle;Signal;HPM_P1;HPM_P2
2023/01/05 00:01:53;;;;;;;0.70;0.70;;;11.40;76.90;;;11.26;62.25;94895.41;4995077;28;20284;-39
2023/01/05 00:04:21;;;;;;;0.70;0.70;;;11.40;76.90;;;11.31;62.37;94882.50;4995593;28;20205;-39
2023/01/05 00:06:48;;;;;;;0.70;0.70;;;11.40;77.00;;;11.32;62.34;94899.88;4995444;28;20202;-39
2023/01/05 00:09:17;;;;;;;0.70;0.70;;;11.40;77.30;;;11.40;62.19;94900.72;4995612;28;20196;-39
2023/01/05 00:23:07;;;;;;;0.60;0.60;;;11.30;77.40;;;11.53;62.30;94912.09;4995734;28;20616;-39
2023/01/05 00:25:39;;;;;;;0.60;0.60;;;11.40;77.30;;;11.56;61.82;94870.66;4995297;28;20259;-41
2023/01/05 00:28:07;;;;;;;0.60;0.60;;;11.30;77.50;;;11.53;61.80;94885.00;4995481;28;20629;-38
2023/01/05 00:30:40;;;;;;;0.60;0.60;;;11.40;77.50;;;11.50;62.13;94870.44;4994459;28;20215;-44
2023/01/05 00:33:14;;;;;;;0.60;0.60;;;11.50;77.20;;;11.48;61.90;94877.69;4996241;28;20519;-39
2023/01/05 00:35:41;;;;;;;0.70;0.70;;;11.60;77.00;;;11.45;62.10;94875.50;4995396;28;20188;-42
2023/01/05 00:38:09;;;;;;;0.70;0.70;;;11.50;77.00;;;11.43;62.20;94890.63;4995149;28;20221;-41
2023/01/05 00:40:37;;;;;;;0.75;0.75;;;11.50;77.20;;;11.38;62.52;94867.56;4994313;28;20312;-43
2023/01/05 00:43:04;;;;;;;0.70;0.70;;;11.50;77.40;;;11.42;62.74;94878.50;4995267;28;20525;-43
2023/01/05 00:45:32;;;;;;;0.80;0.80;;;11.50;77.40;;;11.46;62.49;94871.84;4994426;28;20189;-39
2023/01/05 00:47:59;;;;;;;0.70;0.70;;;11.50;77.50;;;11.50;62.41;94865.19;4995076;28;20194;-41
2023/01/05 00:50:26;;;;;;;0.70;0.70;;;11.50;77.40;;;11.55;62.52;94856.72;4995230;28;20228;-44
2023/01/05 00:52:53;;;;;;;0.60;0.60;;;11.60;77.30;;;11.58;62.42;94850.25;4994340;28;20264;-44
2023/01/05 00:55:21;;;;;;;0.60;0.60;;;11.60;77.10;;;11.63;62.20;94866.22;4978192;28;20300;-42
2023/01/05 00:57:48;;;;;;;0.70;0.70;;;11.70;77.00;;;11.66;61.72;94852.69;4994250;28;20215;-41
2023/01/05 01:00:18;;;;;;;0.70;0.70;;;11.70;77.10;;;11.67;61.98;94843.81;4994236;28;20249;-44
2023/01/05 01:02:46;;;;;;;0.70;0.70;;;11.70;76.90;;;11.68;61.84;94863.81;4978282;28;20201;-38
2023/01/05 01:05:13;;;;;;;0.80;0.80;;;11.70;76.90;;;11.64;62.02;94847.63;5010418;28;20629;-38
2023/01/05 01:07:41;;;;;;;0.68;0.68;;;11.70;77.20;;;11.65;62.19;94869.47;4995025;28;20636;-38
2023/01/05 01:10:10;;;;;;;0.70;0.70;;;11.80;77.30;;;11.67;62.02;94867.47;5010513;28;20212;-39
2023/01/05 01:12:37;;;;;;;0.70;0.70;;;11.80;77.10;;;11.69;62.36;94875.94;4994643;28;20633;-38
2023/01/05 01:15:05;;;;;;;0.70;0.70;;;11.90;77.20;;;11.68;62.17;94863.81;4981621;28;20202;-38
2023/01/05 01:17:34;;;;;;;0.70;0.70;;;11.80;76.90;;;11.75;62.01;94855.94;4998746;28;20190;-39
2023/01/05 01:20:01;;;;;;;0.80;0.80;;;11.80;77.00;;;11.79;62.07;94865.84;4998941;28;20567;-38
2023/01/05 01:22:28;;;;;;;0.70;0.70;;;11.80;77.20;;;11.79;62.38;94860.59;4998482;28;20198;-38
2023/01/05 01:24:55;;;;;;;0.60;0.60;;;11.70;77.30;;;11.81;62.05;94842.00;4997430;28;20241;-38
2023/01/05 01:27:23;;;;;;;0.60;0.60;;;11.90;77.40;;;11.86;62.26;94850.09;4998235;28;20186;-36
2023/01/05 01:29:50;;;;;;;0.70;0.70;;;11.70;77.40;;;11.90;62.30;94863.63;4997474;28;20224;-36
2023/01/05 01:32:18;;;;;;;0.80;0.80;;;11.70;77.50;;;11.87;62.28;94841.19;4997385;28;20263;-36
2023/01/05 01:34:45;;;;;;;0.80;0.80;;;11.80;77.50;;;11.89;62.32;94862.84;4997528;28;20201;-36
2023/01/05 01:37:12;;;;;;;0.60;0.60;;;11.90;77.40;;;11.92;62.15;94835.34;4997095;28;20204;-36
2023/01/05 01:39:45;;;;;;;0.60;0.60;;;12.00;77.30;;;11.96;62.22;94833.91;4997156;28;20213;-36
2023/01/05 01:42:15;;;;;;;0.70;0.70;;;12.00;77.20;;;11.94;61.96;94828.88;5013506;28;20197;-37
2023/01/05 01:44:51;;;;;;;0.70;0.70;;;12.00;77.30;;;11.97;62.13;94853.97;5013492;28;20213;-36
2023/01/05 01:47:34;;;;;;;0.60;0.60;;;12.00;77.30;;;12.01;62.31;94844.66;5013319;28;20594;-36
2023/01/05 01:50:18;;;;;;;0.60;0.60;;;12.00;77.20;;;12.01;61.96;94826.25;4998076;28;20189;-36
2023/01/05 01:52:50;;;;;;;0.60;0.60;;;12.00;77.10;;;12.00;62.13;94838.59;4997219;28;20272;-36
2023/01/05 01:55:18;;;;;;;0.65;0.65;;;12.00;77.10;;;12.00;62.27;94862.25;5013260;28;20203;-36
2023/01/05 01:57:48;;;;;;;0.65;0.65;;;12.00;77.10;;;12.00;62.10;94845.69;4996876;28;20201;-36
2023/01/05 02:00:17;;;;;;;0.60;0.60;;;11.90;77.50;;;12.02;62.08;94843.66;4996758;28;20683;-36
2023/01/05 02:02:54;;;;;;;0.70;0.70;;;11.90;77.50;;;11.99;62.06;94855.38;4997156;28;20545;-37
2023/01/05 02:05:30;;;;;;;0.68;0.68;;;11.90;77.60;;;11.95;62.23;94845.44;4997159;28;20186;-37
2023/01/05 02:07:57;;;;;;;0.65;0.65;;;11.80;77.50;;;11.96;62.19;94839.16;4996737;28;20640;-36
2023/01/05 02:11:03;;;;;;;0.90;0.90;;;12.00;77.50;;;11.99;61.49;94852.75;5012943;28;20198;-36
2023/01/05 02:14:13;;;;;;;0.70;0.70;;;12.00;76.80;;;11.97;61.65;94846.06;4996635;28;20208;-36
2023/01/05 02:17:33;;;;;;;0.70;0.70;;;12.00;77.00;;;11.93;61.54;94827.25;5012925;28;20205;-36
2023/01/05 02:20:42;;;;;;;0.70;0.70;;;12.00;76.50;;;11.88;61.29;94811.28;4980450;28;20308;-36
2023/01/05 02:24:14;;;;;;;0.70;0.70;;;12.00;76.60;;;11.81;61.27;94800.75;5012742;28;20224;-36
2023/01/05 02:26:56;;;;;;;0.70;0.70;;;12.00;76.00;;;11.81;61.12;94794.69;4997145;28;20229;-36
2023/01/05 02:30:13;;;;;;;0.70;0.70;;;11.90;75.90;;;11.72;61.23;94783.59;4996415;28;20579;-36
2023/01/05 02:33:00;;;;;;;0.70;0.70;;;11.90;76.20;;;11.67;61.08;94768.41;4997411;28;20185;-37
2023/01/05 02:35:58;;;;;;;0.70;0.70;;;11.90;75.90;;;11.61;61.22;94777.13;5012534;28;20193;-37
2023/01/05 02:38:48;;;;;;;0.70;0.70;;;11.90;75.90;;;11.58;61.03;94772.25;4996177;28;20280;-36
2023/01/05 02:41:22;;;;;;;0.60;0.60;;;11.90;75.90;;;11.58;61.25;94758.31;4996224;28;20308;-36
2023/01/05 02:43:49;;;;;;;0.70;0.70;;;11.90;75.90;;;11.60;60.98;94782.56;4996040;28;20555;-36
2023/01/05 02:46:17;;;;;;;0.70;0.70;;;11.80;75.80;;;11.60;61.12;94762.34;4980072;28;20190;-36
2023/01/05 02:48:47;;;;;;;0.70;0.70;;;11.80;75.90;;;11.64;60.89;94771.44;4979565;28;20222;-36
2023/01/05 02:51:22;;;;;;;0.60;0.60;;;11.90;76.00;;;11.69;60.42;94765.59;4997270;28;20182;-36
2023/01/05 02:54:02;;;;;;;0.70;0.70;;;11.90;75.50;;;11.67;60.04;94767.63;4980135;28;20217;-36
2023/01/05 02:56:43;;;;;;;0.80;0.80;;;12.00;75.50;;;11.68;59.75;94774.47;4995964;28;20220;-36
2023/01/05 02:59:22;;;;;;;0.70;0.70;;;11.90;75.30;;;11.67;59.78;94762.38;5011949;28;20236;-36
2023/01/05 03:02:01;;;;;;;0.60;0.60;;;11.80;75.40;;;11.62;60.00;94759.53;4995845;28;20275;-36
2023/01/05 03:04:43;;;;;;;0.90;0.90;;;11.80;75.30;;;11.61;60.30;94763.16;4995870;28;20185;-36
2023/01/05 03:07:16;;;;;;;0.70;0.70;;;11.80;75.30;;;11.62;60.19;94749.00;4995500;28;20228;-36
2023/01/05 03:09:45;;;;;;;0.70;0.70;;;11.80;75.20;;;11.62;60.11;94744.59;5011885;28;20580;-36
2023/01/05 03:15:22;;;;;;;0.60;0.60;;;11.80;75.20;;;11.61;60.03;94745.59;4998077;28;20617;-36
2023/01/05 03:17:56;;;;;;;0.70;0.70;;;11.80;75.20;;;11.61;60.33;94747.38;4995637;28;20190;-36
2023/01/05 03:20:30;;;;;;;0.80;0.80;;;11.90;75.40;;;11.66;59.92;94737.91;4979266;28;20292;-36
2023/01/05 03:37:50;;;;;;;0.60;0.60;;;11.80;75.80;;;11.95;59.92;94748.19;4995313;28;20691;-36
2023/01/05 03:40:28;;;;;;;0.70;0.70;;;11.70;75.80;;;11.96;59.75;94744.53;4978784;28;20229;-36
2023/01/05 03:42:56;;;;;;;0.70;0.70;;;11.80;75.80;;;12.02;59.86;94754.28;4995012;28;20245;-37
2023/01/05 03:45:41;;;;;;;0.70;0.70;;;11.80;75.90;;;12.06;59.96;94765.19;4979125;28;20236;-36
2023/01/05 03:48:14;;;;;;;0.70;0.70;;;11.90;75.90;;;12.07;60.16;94740.53;4979558;28;20186;-36
2023/01/05 03:50:41;;;;;;;0.70;0.70;;;11.80;75.80;;;12.10;60.07;94748.81;4995842;28;20201;-36
2023/01/05 03:53:12;;;;;;;0.70;0.70;;;11.90;75.90;;;12.12;59.96;94745.97;5011253;28;20260;-36
2023/01/05 03:55:41;;;;;;;0.60;0.60;;;11.90;75.90;;;12.18;59.67;94745.13;4995285;28;20205;-35
2023/01/05 03:58:09;;;;;;;0.70;0.70;;;12.00;76.00;;;12.20;59.98;94744.97;4994656;28;20201;-36
2023/01/05 04:00:41;;;;;;;0.60;0.60;;;12.00;76.00;;;12.19;60.10;94769.63;4994747;28;20229;-36
2023/01/05 04:03:11;;;;;;;0.70;0.70;;;12.00;76.00;;;12.19;60.47;94754.66;4994714;28;20181;-35
2023/01/05 04:05:38;;;;;;;0.70;0.70;;;12.10;76.10;;;12.23;60.28;94739.28;5011001;28;20219;-36
2023/01/05 04:08:06;;;;;;;0.65;0.65;;;12.10;76.10;;;12.25;60.56;94755.66;4994784;28;20602;-36
2023/01/05 04:10:35;;;;;;;0.70;0.70;;;12.20;76.10;;;12.27;60.52;94743.13;4994583;28;20591;-39
2023/01/05 04:13:02;;;;;;;0.63;0.63;;;12.30;76.20;;;12.30;60.54;94745.31;4994582;28;20232;-36
2023/01/05 04:15:30;;;;;;;0.60;0.60;;;12.30;76.20;;;12.36;59.84;94741.06;4994587;28;20201;-38
2023/01/05 04:17:58;;;;;;;0.70;0.70;;;12.30;76.20;;;12.37;59.98;94722.44;5010718;28;20208;-36
2023/01/05 04:20:25;;;;;;;0.60;0.60;;;12.40;76.30;;;12.43;60.25;94726.06;5010822;28;20352;-36
2023/01/05 04:22:52;;;;;;;0.70;0.70;;;12.40;76.10;;;12.43;59.94;94708.47;4994753;28;20518;-41
2023/01/05 04:25:21;;;;;;;0.60;0.60;;;12.40;76.30;;;12.44;60.08;94732.97;4994339;28;20240;-36
2023/01/05 04:27:48;;;;;;;0.80;0.80;;;12.30;76.20;;;12.42;59.92;94714.72;4995031;28;20276;-36
2023/01/05 04:30:17;;;;;;;0.65;0.65;;;12.20;76.10;;;12.38;60.10;94713.53;5010818;28;20656;-38
2023/01/05 04:32:44;;;;;;;0.63;0.63;;;12.30;76.20;;;12.38;60.48;94704.81;4994535;28;20225;-36
2023/01/05 04:35:14;;;;;;;0.60;0.60;;;12.30;76.20;;;12.38;60.07;94700.38;4994594;28;20555;-36
2023/01/05 04:37:43;;;;;;;0.60;0.60;;;12.30;76.20;;;12.35;59.91;94692.09;4994444;28;20201;-37
2023/01/05 04:40:12;;;;;;;0.50;0.50;;;12.40;76.20;;;12.38;60.30;94694.31;5010525;28;20206;-36
2023/01/05 04:42:50;;;;;;;0.60;0.60;;;12.40;76.00;;;12.35;60.46;94703.41;4996816;28;20269;-38
2023/01/05 04:45:17;;;;;;;0.80;0.80;;;12.40;75.90;;;12.38;60.24;94683.78;4995619;28;20272;-36
2023/01/05 04:47:45;;;;;;;0.80;0.80;;;12.40;76.00;;;12.42;60.17;94680.53;5011462;28;20201;-36
2023/01/05 04:50:16;;;;;;;0.80;0.80;;;12.40;75.70;;;12.40;60.06;94703.63;4998074;28;20197;-35
2023/01/05 04:52:44;;;;;;;0.60;0.60;;;12.40;75.70;;;12.33;60.09;94669.44;4998071;28;20197;-36
2023/01/05 04:55:12;;;;;;;0.60;0.60;;;12.50;75.90;;;12.36;59.89;94688.47;5014361;28;20208;-36
2023/01/05 04:57:40;;;;;;;0.68;0.68;;;12.50;76.50;;;12.32;59.94;94672.28;4998038;28;20640;-36
2023/01/05 05:00:11;;;;;;;0.63;0.63;;;12.50;75.60;;;12.35;60.21;94687.66;4997862;28;20189;-36
2023/01/05 05:02:38;;;;;;;0.80;0.80;;;12.50;75.40;;;12.30;60.15;94684.84;4999082;28;20229;-36
2023/01/05 05:05:08;;;;;;;0.70;0.70;;;12.40;75.50;;;12.30;59.96;94687.47;5014189;28;20256;-36
2023/01/05 05:07:37;;;;;;;0.80;0.80;;;12.50;75.40;;;12.27;60.07;94675.53;4997815;28;20244;-36
2023/01/05 05:10:08;;;;;;;0.80;0.80;;;12.40;75.50;;;12.29;60.03;94684.03;5014086;28;20233;-36
2023/01/05 05:12:37;;;;;;;0.60;0.60;;;12.40;75.60;;;12.32;60.16;94677.56;4997788;28;20233;-36
2023/01/05 05:15:06;;;;;;;0.65;0.65;;;12.40;75.70;;;12.31;60.29;94692.50;4997974;28;20300;-37
2023/01/05 05:17:33;;;;;;;0.60;0.60;;;12.40;75.90;;;12.33;59.89;94672.09;4998813;28;20228;-36
2023/01/05 05:20:02;;;;;;;0.60;0.60;;;12.40;75.80;;;12.33;59.81;94661.56;5013916;28;20201;-36
2023/01/05 05:22:29;;;;;;;0.60;0.60;;;12.40;75.80;;;12.34;59.79;94686.06;4997423;28;20272;-36
2023/01/05 05:24:59;;;;;;;0.70;0.70;;;12.40;75.70;;;12.41;59.79;94675.50;4997411;28;20229;-36
2023/01/05 05:27:26;;;;;;;0.55;0.55;;;12.40;75.60;;;12.37;59.95;94675.09;4997582;28;20215;-38
2023/01/05 05:29:53;;;;;;;0.60;0.60;;;12.50;75.70;;;12.41;59.88;94673.66;4998266;28;20205;-36
2023/01/05 05:32:20;;;;;;;0.60;0.60;;;12.60;75.60;;;12.46;59.45;94686.19;4997489;28;20194;-36
2023/01/05 05:34:47;;;;;;;0.60;0.60;;;12.50;75.30;;;12.49;59.71;94685.78;4998264;28;20190;-36
2023/01/05 05:37:14;;;;;;;0.63;0.63;;;12.50;75.50;;;12.49;59.60;94683.16;4998252;28;20194;-36
2023/01/05 05:39:41;;;;;;;0.70;0.70;;;12.50;75.70;;;12.51;59.72;94685.56;4998063;28;20235;-36
2023/01/05 05:42:08;;;;;;;0.70;0.70;;;12.50;75.60;;;12.55;59.75;94665.72;4998145;28;20224;-36
2023/01/05 05:44:35;;;;;;;0.63;0.63;;;12.50;75.50;;;12.55;59.31;94670.97;4998200;28;20632;-36
2023/01/05 05:47:02;;;;;;;0.60;0.60;;;12.60;75.60;;;12.61;59.23;94683.31;4998061;28;20198;-36
2023/01/05 05:49:30;;;;;;;0.75;0.75;;;12.50;75.40;;;12.59;59.31;94669.56;4997834;28;20201;-36
2023/01/05 05:51:57;;;;;;;0.60;0.60;;;12.50;75.60;;;12.57;59.72;94661.06;4997963;28;20632;-36
2023/01/05 05:54:24;;;;;;;0.60;0.60;;;12.60;75.90;;;12.61;59.73;94657.78;4997331;28;20212;-36
2023/01/05 05:56:51;;;;;;;0.60;0.60;;;12.70;75.90;;;12.62;59.82;94661.22;4997885;28;20216;-36
2023/01/05 05:59:18;;;;;;;0.65;0.65;;;12.60;75.60;;;12.60;59.64;94663.28;4996633;28;20625;-36
2023/01/05 06:01:45;;;;;;;0.70;0.70;;;12.50;75.90;;;12.57;59.90;94653.97;4997740;28;20292;-36
2023/01/05 06:04:13;;;;;;;0.60;0.60;;;12.50;76.20;;;12.56;59.94;94680.47;4997985;28;20201;-36
2023/01/05 06:06:40;;;;;;;0.60;0.60;;;12.50;75.90;;;12.55;60.13;94679.69;4997702;28;20625;-36
2023/01/05 06:09:07;;;;;;;0.60;0.60;;;12.50;76.40;;;12.52;60.76;94676.66;4996711;28;20248;-36
2023/01/05 06:11:34;;;;;;;0.70;0.70;;;12.50;76.40;;;12.48;61.28;94678.91;4997630;28;20235;-36
2023/01/05 06:14:01;;;;;;;0.70;0.70;;;12.60;76.40;;;12.43;61.70;94686.63;4997572;28;20197;-36
2023/01/05 06:16:29;;;;;;;0.70;0.70;;;12.50;76.80;;;12.33;61.92;94681.81;4997518;28;20193;-38
2023/01/05 06:18:56;;;;;;;0.60;0.60;;;12.40;76.80;;;12.26;61.79;94658.16;4997326;28;20194;-36
2023/01/05 06:21:24;;;;;;;0.60;0.60;;;12.40;77.00;;;12.22;61.73;94672.75;4996524;28;20213;-36
2023/01/05 06:23:51;;;;;;;0.70;0.70;;;12.40;76.80;;;12.18;61.87;94666.25;4997373;28;20280;-36
2023/01/05 06:26:18;;;;;;;0.70;0.70;;;12.30;76.70;;;12.16;62.13;94684.88;4997193;28;20230;-37
2023/01/05 06:28:46;;;;;;;0.60;0.60;;;12.40;76.80;;;12.15;62.17;94678.00;4980347;28;20201;-36
2023/01/05 06:31:13;;;;;;;0.60;0.60;;;12.40;76.90;;;12.15;62.20;94682.47;4997494;28;20272;-37
2023/01/05 06:33:40;;;;;;;0.70;0.70;;;12.40;76.80;;;12.18;62.32;94676.78;4997169;28;20209;-38
2023/01/05 06:36:08;;;;;;;0.70;0.70;;;12.40;76.90;;;12.13;62.75;94669.53;4997479;28;20216;-37
2023/01/05 06:38:35;;;;;;;0.70;0.70;;;12.40;77.00;;;12.12;62.56;94688.94;4997132;28;20194;-35
2023/01/05 06:41:02;;;;;;;0.70;0.70;;;12.30;77.00;;;12.11;62.78;94678.66;4997006;28;20287;-36
2023/01/05 06:43:29;;;;;;;0.80;0.80;;;12.30;77.10;;;12.10;62.81;94682.28;4996978;28;20523;-36
2023/01/05 06:45:57;;;;;;;0.70;0.70;;;12.30;76.90;;;12.11;62.50;94703.09;4996417;28;20251;-35
2023/01/05 06:48:24;;;;;;;0.70;0.70;;;12.30;76.80;;;12.09;63.02;94697.25;4995962;28;20202;-36
2023/01/05 06:50:52;;;;;;;0.70;0.70;;;12.30;77.20;;;12.13;63.59;94723.94;4996707;28;20564;-36
2023/01/05 06:53:19;;;;;;;0.70;0.70;;;12.30;77.80;;;11.98;65.04;94703.94;4996879;28;20193;-36
2023/01/05 06:55:46;;;;;;;0.65;0.65;;;12.20;78.60;;;11.88;65.49;94721.09;4996674;28;20222;-35
2023/01/05 06:58:13;;;;;;;0.70;0.70;;;12.20;79.10;;;11.77;66.16;94718.09;4996828;28;20193;-35
2023/01/05 07:00:40;;;;;;;0.60;0.60;;;12.20;79.50;;;11.74;66.63;94713.22;4996692;28;20202;-35
2023/01/05 07:03:12;;;;;;;0.70;0.70;;;12.10;80.30;;;11.64;67.12;94718.91;4996574;28;20236;-35
2023/01/05 07:05:40;;;;;;;0.70;0.70;;;12.00;80.80;;;11.56;67.96;94706.00;4996554;28;20182;-35
2023/01/05 07:08:07;;;;;;;0.70;0.70;;;11.90;81.20;;;11.51;67.74;94753.88;4996537;28;20248;-35
2023/01/05 07:10:34;;;;;;;0.70;0.70;;;11.90;81.30;;;11.47;68.19;94726.38;4996280;28;20190;-35
2023/01/05 07:13:01;;;;;;;0.60;0.60;;;11.80;81.30;;;11.47;68.22;94721.13;4996684;28;20213;-34
2023/01/05 07:15:28;;;;;;;0.70;0.70;;;11.80;81.40;;;11.44;68.03;94724.16;4996483;28;20281;-35
2023/01/05 07:17:55;;;;;;;0.70;0.70;;;11.70;81.60;;;11.44;68.23;94733.88;4996350;28;20197;-34
2023/01/05 07:20:22;;;;;;;0.70;0.70;;;11.80;81.70;;;11.41;68.18;94721.94;4996294;28;20197;-35
2023/01/05 07:22:49;;;;;;;0.70;0.70;;;11.80;81.60;;;11.42;67.93;94714.88;4996385;28;20540;-35
2023/01/05 07:25:17;;;;;;;0.70;0.70;;;11.70;81.70;;;11.45;67.82;94724.97;4996047;28;20221;-34
2023/01/05 07:27:49;;;;;;;0.70;0.70;;;11.70;81.50;;;11.47;67.55;94734.25;4996481;28;20186;-35
2023/01/05 07:30:17;;;;;;;0.70;0.70;;;11.70;81.70;;;11.44;67.86;94728.63;4996502;28;20204;-35
2023/01/05 07:32:44;;;;;;;0.70;0.70;;;11.70;81.60;;;11.49;68.30;94747.22;4996112;28;20196;-34
2023/01/05 07:35:12;;;;;;;0.70;0.70;;;11.80;81.90;;;11.49;68.19;94740.13;4995943;28;20197;-34
2023/01/05 07:37:39;;;;;;;0.70;0.70;;;11.70;82.10;;;11.51;68.30;94737.28;4996062;28;20716;-34
2023/01/05 07:40:07;;;;;;;0.70;0.70;;;11.70;82.20;;;11.49;68.23;94737.50;4996312;28;20647;-34
2023/01/05 07:42:34;;;;;;;0.70;0.70;;;11.70;82.40;;;11.49;68.48;94729.63;4996118;28;20229;-34
2023/01/05 07:45:03;;;;;;;0.70;0.70;;;11.70;82.20;;;11.52;68.41;94762.53;5011101;28;20217;-34
2023/01/05 07:47:30;;;;;;;0.70;0.70;;;11.60;82.40;;;11.48;68.63;94756.88;4996132;28;20193;-35
2023/01/05 07:49:58;;;;;;;0.70;0.70;;;11.60;82.90;;;11.46;69.10;94763.34;4995200;28;20205;-35
2023/01/05 07:52:29;;;;;;;0.70;0.70;;;11.60;83.10;;;11.46;69.56;94748.41;4995755;28;20313;-34
2023/01/05 07:54:57;;;;;;;0.60;0.60;;;11.60;83.30;;;11.42;69.67;94752.44;5011115;28;20633;-34
2023/01/05 07:57:24;;;;;;;0.70;0.70;;;11.60;83.40;;;11.41;69.67;94776.28;4995754;28;20280;-34
2023/01/05 07:59:54;;;;;;;0.70;0.70;;;11.70;83.10;;;11.42;69.81;94778.69;4995671;28;20671;-34
2023/01/05 08:02:22;;;;;;;0.70;0.70;;;11.80;83.20;;;11.48;69.65;94788.41;4995710;28;20215;-34
2023/01/05 08:04:50;;;;;;;0.70;0.70;;;11.80;83.10;;;11.49;69.46;94787.41;4995588;28;20204;-34
2023/01/05 08:07:17;;;;;;;0.63;0.63;;;11.90;82.80;;;11.53;69.48;94780.75;4995780;28;20201;-34
2023/01/05 08:12:31;;;;;;;0.60;0.60;;;12.00;83.60;;;11.57;69.51;94786.41;4995964;28;20260;-35
2023/01/05 08:14:58;;;;;;;0.70;0.70;;;12.00;82.60;;;11.57;69.63;94796.91;4995461;28;20276;-35
2023/01/05 08:17:26;;;;;;;0.70;0.70;;;12.00;82.80;;;11.56;69.64;94800.56;4994807;28;20523;-38
2023/01/05 08:19:53;;;;;;;0.70;0.70;;;12.10;82.90;;;11.57;69.46;94796.91;4995039;28;20401;-35
2023/01/05 08:22:20;;;;;;;0.60;0.60;;;12.10;82.70;;;11.60;69.35;94804.38;4995667;28;20205;-35
2023/01/05 08:24:47;;;;;;;0.70;0.70;;;12.10;82.70;;;11.61;68.99;94800.75;4999432;28;20193;-38
2023/01/05 08:27:14;;;;;;;0.60;0.60;;;12.10;82.60;;;11.65;69.31;94816.94;5015053;28;20203;-40
2023/01/05 08:29:42;;;;;;;0.60;0.60;;;12.10;82.60;;;11.66;69.50;94802.78;4999942;28;20193;-37
2023/01/05 08:32:09;;;;;;;0.60;0.60;;;12.20;82.50;;;11.66;69.33;94814.09;4998510;28;20194;-37
2023/01/05 08:34:37;;;;;;;0.70;0.70;;;12.20;82.40;;;11.66;69.31;94829.06;4998571;28;20189;-34
2023/01/05 08:37:04;;;;;;;0.70;0.70;;;12.10;82.60;;;11.59;69.38;94838.75;4999525;28;20213;-34
2023/01/05 08:39:31;;;;;;;0.60;0.60;;;12.10;82.60;;;11.60;69.58;94835.13;4998649;28;20231;-34
2023/01/05 08:42:01;;;;;;;0.70;0.70;;;11.90;82.10;;;11.48;69.10;94837.50;4999935;28;20300;-34
2023/01/05 08:44:29;;;;;;;0.80;0.80;;;11.70;82.50;;;11.34;nan;94857.69;4998483;28;20626;-34
2023/01/05 08:46:56;;;;;;;0.70;0.70;;;11.50;82.80;;;11.15;69.79;94862.66;4999033;28;20624;-35
2023/01/05 08:49:24;;;;;;;0.70;0.70;;;11.50;83.10;;;11.10;69.89;94861.66;4998573;28;20277;-36
2023/01/05 08:51:51;;;;;;;0.70;0.70;;;11.30;83.10;;;10.97;69.26;94857.13;4999231;28;20193;-37
2023/01/05 08:54:19;;;;;;;0.70;0.70;;;11.00;84.00;;;10.82;70.03;94863.31;4999054;28;20198;-35
2023/01/05 08:56:49;;;;;;;0.63;0.63;;;10.90;83.50;;;10.70;70.30;94878.78;4998964;28;20198;-35
2023/01/05 08:59:16;;;;;;;0.70;0.70;;;10.80;83.90;;;10.59;70.26;94870.66;4999284;28;20281;-35
2023/01/05 09:01:44;;;;;;;0.70;0.70;;;10.60;84.00;;;10.52;70.68;94866.19;4999557;28;20217;-34
2023/01/05 09:04:12;;;;;;;0.80;0.80;;;10.50;84.60;;;10.44;71.21;94881.28;4999049;28;20645;-35
2023/01/05 09:06:40;;;;;;;0.70;0.70;;;10.50;84.90;;;10.38;71.43;94882.84;4998778;28;20190;-33
2023/01/05 09:09:08;;;;;;;0.65;0.65;;;10.40;85.00;;;10.34;71.39;94879.75;4999114;28;20194;-34
2023/01/05 09:11:35;;;;;;;0.70;0.70;;;10.40;85.30;;;10.34;71.54;94879.75;4998772;28;20189;-34
2023/01/05 09:14:04;;;;;;;0.80;0.80;;;10.40;85.30;;;10.35;71.54;94886.63;4998754;28;20252;-34
2023/01/05 09:16:34;;;;;;;0.70;0.70;;;10.40;85.20;;;10.30;70.97;94907.38;4998566;28;20196;-33
2023/01/05 09:19:21;;;;;;;0.70;0.70;;;10.20;85.10;;;10.20;70.97;94906.88;4998179;28;20184;-33
2023/01/05 09:21:48;;;;;;;0.60;0.60;;;10.10;85.10;;;10.08;70.83;94917.88;4998611;28;20302;-33
2023/01/05 09:24:15;;;;;;;0.70;0.70;;;10.00;85.00;;;10.01;70.93;94927.47;4998891;28;20200;-34
2023/01/05 09:26:43;;;;;;;0.80;0.80;;;9.90;86.40;;;9.91;71.14;94926.97;4998271;28;20257;-35
2023/01/05 09:29:12;;;;;;;0.60;0.60;;;9.80;86.50;;;9.83;71.05;94927.09;4998466;28;20208;-34
2023/01/05 09:31:40;;;;;;;0.70;0.70;;;9.70;86.60;;;9.76;71.27;94934.88;4997467;28;20260;-36
2023/01/05 09:34:08;;;;;;;0.70;0.70;;;9.70;86.60;;;9.69;71.50;94940.06;4998466;28;20668;-34
2023/01/05 09:36:37;;;;;;;0.70;0.70;;;9.70;86.70;;;9.66;71.52;94929.16;4997524;28;20194;-35
2023/01/05 09:39:05;;;;;;;0.70;0.70;;;9.50;86.50;;;9.58;71.40;94928.28;4998291;28;20190;-33
2023/01/05 09:41:43;;;;;;;0.70;0.70;;;9.50;86.80;;;9.55;71.82;94917.34;4998124;28;20528;-33
2023/01/05 09:44:36;;;;;;;0.70;0.70;;;9.50;87.30;;;9.56;71.68;94919.78;4998861;28;20624;-32
2023/01/05 09:47:33;;;;;;;0.70;0.70;;;9.40;86.90;;;9.57;71.41;94912.72;4981556;28;20641;-35
2023/01/05 09:50:04;;;;;;;0.70;0.70;;;9.40;87.30;;;9.52;71.70;94942.09;4997606;28;20240;-33
2023/01/05 09:52:33;;;;;;;0.70;0.70;;;9.30;87.30;;;9.44;71.95;94948.25;4998071;28;20248;-33
2023/01/05 09:55:16;;;;;;;0.80;0.80;;;9.40;87.90;;;9.45;72.00;94938.59;4998363;28;20190;-33
2023/01/05 09:58:04;;;;;;;0.70;0.70;;;9.40;87.90;;;9.48;72.11;94924.31;4981488;28;20222;-34
2023/01/05 10:00:32;;;;;;;0.70;0.70;;;9.50;88.10;;;9.52;72.69;94915.91;4997302;28;20193;-45
2023/01/05 10:03:11;;;;;;;0.70;0.70;;;9.50;88.20;;;9.60;72.45;94934.13;4997096;28;20218;-35
2023/01/05 10:06:00;;;;;;;0.70;0.70;;;9.60;88.20;;;9.66;72.19;94934.38;4997488;28;20186;-34
2023/01/05 10:08:37;;;;;;;0.80;0.80;;;9.70;88.00;;;9.67;72.01;94933.41;4996814;28;20193;-34
2023/01/05 10:14:29;;;;;;;0.70;0.70;;;9.80;88.20;;;9.78;72.10;94935.53;4997032;28;20508;-35
2023/01/05 10:16:57;;;;;;;0.85;0.85;;;9.90;88.20;;;9.83;71.96;94932.34;4996816;28;20177;-34
2023/01/05 10:19:51;;;;;;;0.70;0.70;;;10.00;86.80;;;9.81;72.12;94937.75;4997724;28;20210;-38
2023/01/05 10:22:57;;;;;;;0.70;0.70;;;10.00;86.50;;;9.85;71.74;94925.91;4996538;28;20304;-44
2023/01/05 10:25:33;;;;;;;0.80;0.80;;;9.90;87.50;;;9.82;71.68;94933.34;4965139;28;20251;-44
2023/01/05 10:28:20;;;;;;;0.60;0.60;;;9.80;87.50;;;9.80;71.48;94940.56;4997792;28;20209;-33
2023/01/05 10:30:58;;;;;;;0.70;0.70;;;9.80;87.60;;;9.82;71.54;94938.59;4997590;28;20248;-35
2023/01/05 10:33:52;;;;;;;0.70;0.70;;;9.90;87.50;;;9.83;71.22;94932.34;4997473;28;20260;-35
2023/01/05 10:36:45;;;;;;;0.70;0.70;;;9.90;87.40;;;9.83;71.04;94937.59;4997319;28;20209;-45
2023/01/05 10:40:17;;;;;;;0.70;0.70;;;9.90;87.00;;;9.80;71.26;94937.94;4997571;28;20624;-34
2023/01/05 10:43:16;;;;;;;0.70;0.70;;;10.00;86.20;;;9.82;71.17;94936.75;4980672;28;20264;-36
2023/01/05 10:45:43;;;;;;;0.70;0.70;;;9.90;86.90;;;9.85;71.02;94941.63;4996500;28;20217;-34
2023/01/05 10:48:34;;;;;;;0.80;0.80;;;9.90;86.60;;;9.83;71.15;94935.75;4997155;28;20174;-34
2023/01/05 10:51:03;;;;;;;0.70;0.70;;;9.90;87.30;;;9.84;71.44;94937.41;4997143;28;20648;-33
2023/01/05 10:53:35;;;;;;;0.70;0.70;;;10.10;86.30;;;9.90;71.65;94941.88;4996191;28;20202;-33
2023/01/05 10:56:27;;;;;;;0.80;0.80;;;10.10;86.20;;;9.96;70.71;94947.38;4996259;28;20204;-34
2023/01/05 10:59:14;;;;;;;0.70;0.70;;;10.10;85.20;;;9.93;70.76;94941.50;4997159;28;20527;-36
2023/01/05 11:01:46;;;;;;;0.70;0.70;;;10.20;85.40;;;9.94;70.94;94945.75;4996861;28;20631;-36
2023/01/05 11:04:21;;;;;;;0.80;0.80;;;10.10;85.40;;;9.97;70.32;94955.03;4996765;28;20210;-33
2023/01/05 11:07:06;;;;;;;0.68;0.68;;;10.10;85.00;;;9.99;70.51;94949.63;4996760;28;20206;-35
2023/01/05 11:09:46;;;;;;;0.70;0.70;;;10.20;85.10;;;9.98;70.29;94948.00;4996936;28;20191;-36
2023/01/05 11:12:24;;;;;;;0.70;0.70;;;10.10;84.70;;;9.97;70.09;94949.78;4996947;28;20581;-44
2023/01/05 11:14:56;;;;;;;0.80;0.80;;;10.10;84.80;;;9.96;70.31;94955.22;4995706;28;20198;-35
2023/01/05 11:17:28;;;;;;;0.70;0.70;;;10.10;85.10;;;10.01;70.15;94963.34;4995269;28;20201;-35